Time;durP1;ratioP1;P1;durP2;ratioP2;P2;SDS_P1;SDS_P2;PMS_P1;PMS_P2;Temp;Humidity;BMP_temperature;BMP_pressure;BME280_temperature;BME280_humidity;BME280_pressure;Samples;Min_cycle;Max_cycle;Signal;HPM_P1;HPM_P2
2021/11/28 00:02:08;;;;;;;23.95;22.35;;;2.60;90.00;;;;;;5059042;28;20214;-70
2021/11/28 00:04:35;;;;;;;22.48;20.92;;;2.60;90.40;;;;;;5068329;28;20307;-70
2021/11/28 00:07:05;;;;;;;24.70;23.00;;;2.70;90.60;;;;;;5071859;28;20279;-69
2021/11/28 00:09:55;;;;;;;24.08;21.95;;;2.70;90.70;;;;;;5071845;28;20849;-69
2021/11/28 00:12:38;;;;;;;24.30;22.80;;;2.70;90.10;;;;;;5064475;28;20309;-70
2021/11/28 00:15:06;;;;;;;22.80;21.30;;;2.70;90.00;;;;;;5069612;28;20196;-69
2021/11/28 00:17:33;;;;;;;22.63;21.10;;;2.70;90.00;;;;;;5072060;28;20283;-70
2021/11/28 00:20:00;;;;;;;23.88;22.42;;;2.80;89.60;;;;;;5069656;28;20300;-69
2021/11/28 00:22:27;;;;;;;23.40;22.00;;;2.90;89.50;;;;;;5071693;28;20247;-70
2021/11/28 00:24:54;;;;;;;23.60;22.20;;;2.90;89.30;;;;;;5070441;28;20299;-69
2021/11/28 00:27:21;;;;;;;23.08;21.67;;;3.00;88.50;;;;;;5070870;28;20199;-70
2021/11/28 00:29:49;;;;;;;23.27;21.88;;;3.00;89.00;;;;;;5069565;28;20650;-69
2021/11/28 00:32:16;;;;;;;22.60;21.23;;;2.90;89.30;;;;;;5071603;28;20311;-70
2021/11/28 00:34:43;;;;;;;22.90;21.50;;;2.90;89.70;;;;;;5069864;28;20279;-70
2021/11/28 00:37:11;;;;;;;22.10;20.70;;;2.90;89.60;;;;;;5071901;28;20290;-69
2021/11/28 00:39:38;;;;;;;22.27;20.75;;;2.80;89.80;;;;;;5070336;28;20906;-70
2021/11/28 00:42:06;;;;;;;21.75;20.50;;;2.80;89.20;;;;;;5070417;28;20283;-70
2021/11/28 00:44:33;;;;;;;21.40;20.20;;;3.00;88.30;;;;;;5068914;28;20200;-69
2021/11/28 00:47:01;;;;;;;21.45;20.15;;;3.10;87.50;;;;;;5070821;28;20283;-69
2021/11/28 00:49:28;;;;;;;22.05;20.75;;;3.10;86.30;;;;;;5071872;28;20219;-70
2021/11/28 00:51:57;;;;;;;22.48;21.20;;;3.10;85.20;;;;;;5070505;28;20228;-70
2021/11/28 00:54:25;;;;;;;22.20;20.90;;;3.30;84.20;;;;;;5071543;28;20216;-70
2021/11/28 00:56:53;;;;;;;21.67;20.27;;;3.30;83.40;;;;;;5069933;28;20600;-70
2021/11/28 00:59:20;;;;;;;21.77;20.50;;;3.30;83.20;;;;;;5071896;28;20188;-70
2021/11/28 01:01:47;;;;;;;21.80;20.50;;;3.40;83.20;;;;;;5052683;28;20202;-70
2021/11/28 01:04:16;;;;;;;21.75;20.45;;;3.40;82.90;;;;;;5069853;28;20220;-70
2021/11/28 01:06:44;;;;;;;22.77;21.13;;;3.40;83.10;;;;;;5067440;28;20279;-70
2021/11/28 01:09:12;;;;;;;22.17;20.88;;;3.40;83.10;;;;;;5072086;28;20330;-70
2021/11/28 01:11:39;;;;;;;22.65;21.35;;;3.40;82.90;;;;;;5069869;28;20287;-69
2021/11/28 01:14:09;;;;;;;23.02;21.38;;;3.30;83.40;;;;;;5069456;28;20277;-69
2021/11/28 01:16:37;;;;;;;22.88;21.52;;;3.30;83.60;;;;;;5066876;28;20283;-70
2021/11/28 01:19:05;;;;;;;22.95;21.63;;;3.20;84.10;;;;;;5070796;28;20303;-69
2021/11/28 01:21:33;;;;;;;22.77;21.38;;;3.20;84.20;;;;;;5069042;28;20294;-70
2021/11/28 01:24:00;;;;;;;22.05;20.75;;;3.20;84.10;;;;;;5071356;28;20311;-69
2021/11/28 01:26:31;;;;;;;21.17;20.08;;;3.30;83.60;;;;;;5069331;28;20661;-70
2021/11/28 01:28:58;;;;;;;22.77;21.38;;;3.40;83.70;;;;;;5070095;28;20200;-69
2021/11/28 01:31:26;;;;;;;22.17;20.88;;;3.30;83.80;;;;;;5069300;28;20523;-69
2021/11/28 01:33:53;;;;;;;23.38;21.98;;;3.20;84.20;;;;;;5070949;28;20235;-69
2021/11/28 01:36:20;;;;;;;22.08;20.77;;;3.30;84.60;;;;;;5069570;28;20283;-70
2021/11/28 01:38:48;;;;;;;22.45;21.05;;;3.30;85.00;;;;;;5070242;28;20291;-70
2021/11/28 01:41:16;;;;;;;22.83;21.33;;;3.30;85.00;;;;;;5069843;28;20231;-70
2021/11/28 01:43:43;;;;;;;22.77;21.40;;;3.30;85.60;;;;;;5066373;28;20555;-70
2021/11/28 01:46:10;;;;;;;22.08;20.88;;;3.40;84.50;;;;;;5069024;28;20234;-69
2021/11/28 01:48:37;;;;;;;21.23;20.13;;;3.50;84.20;;;;;;5062474;28;20284;-69
2021/11/28 01:51:05;;;;;;;22.23;20.88;;;3.50;83.30;;;;;;5069511;28;20914;-70
2021/11/28 01:53:32;;;;;;;22.67;21.27;;;3.50;82.90;;;;;;5070432;28;20243;-70
2021/11/28 01:56:01;;;;;;;21.88;20.67;;;3.50;82.80;;;;;;5069556;28;20291;-70
2021/11/28 01:58:28;;;;;;;22.38;21.05;;;3.40;82.90;;;;;;5071279;28;20618;-70
2021/11/28 02:00:58;;;;;;;21.63;20.38;;;3.40;83.20;;;;;;5068631;28;20723;-70
2021/11/28 02:03:26;;;;;;;22.20;20.77;;;3.40;83.60;;;;;;5069997;28;20220;-70
2021/11/28 02:05:55;;;;;;;22.95;21.58;;;3.40;83.60;;;;;;5069174;28;20287;-70
2021/11/28 02:08:22;;;;;;;21.42;20.23;;;3.50;83.50;;;;;;5070485;28;20279;-69
2021/11/28 02:10:50;;;;;;;23.13;21.60;;;3.50;83.60;;;;;;5069413;28;20667;-70
2021/11/28 02:13:21;;;;;;;23.77;22.08;;;3.50;83.20;;;;;;5068999;28;20251;-70
2021/11/28 02:15:48;;;;;;;22.70;21.23;;;3.50;83.10;;;;;;5067788;28;20236;-70
2021/11/28 02:18:15;;;;;;;22.35;21.05;;;3.60;82.80;;;;;;5067608;28;20283;-70
2021/11/28 02:20:45;;;;;;;22.92;21.52;;;3.60;82.40;;;;;;5068982;28;20275;-70
2021/11/28 02:23:13;;;;;;;22.85;21.58;;;3.60;82.70;;;;;;5070280;28;20220;-69
2021/11/28 02:25:40;;;;;;;22.52;21.33;;;3.60;82.40;;;;;;5068488;28;20231;-69
2021/11/28 02:28:07;;;;;;;23.42;21.83;;;3.60;82.30;;;;;;5069556;28;20837;-69
2021/11/28 02:30:34;;;;;;;23.45;22.10;;;3.50;82.80;;;;;;5067751;28;20299;-69
2021/11/28 02:33:01;;;;;;;23.10;21.63;;;3.50;83.20;;;;;;5069967;28;20262;-69
2021/11/28 02:35:31;;;;;;;22.88;21.38;;;3.50;83.50;;;;;;5068084;28;20697;-70
2021/11/28 02:38:00;;;;;;;21.73;20.48;;;3.50;84.00;;;;;;5064459;28;20204;-70
2021/11/28 02:40:28;;;;;;;23.73;22.33;;;3.50;84.10;;;;;;5066320;28;20283;-70
2021/11/28 02:42:56;;;;;;;22.27;20.98;;;3.60;83.50;;;;;;5069720;28;20303;-70
2021/11/28 02:45:25;;;;;;;21.88;20.58;;;3.60;82.80;;;;;;5063362;28;20287;-70
2021/11/28 02:47:55;;;;;;;21.77;20.30;;;3.70;82.20;;;;;;5069310;28;20737;-70
2021/11/28 02:50:23;;;;;;;22.50;21.10;;;3.80;81.70;;;;;;5067410;28;20273;-70
2021/11/28 02:52:54;;;;;;;22.90;21.45;;;3.70;81.70;;;;;;5069949;28;20248;-69
2021/11/28 02:55:26;;;;;;;21.90;20.70;;;3.60;82.60;;;;;;5066054;28;20196;-70
2021/11/28 02:57:54;;;;;;;22.08;20.77;;;3.60;83.50;;;;;;5069640;28;20620;-70
2021/11/28 03:00:22;;;;;;;21.88;20.60;;;3.60;84.00;;;;;;5066734;28;20294;-70
2021/11/28 03:02:49;;;;;;;22.75;21.45;;;3.50;84.70;;;;;;5067589;28;20291;-70
2021/11/28 03:05:16;;;;;;;22.40;20.88;;;3.40;85.00;;;;;;5067309;28;20732;-69
2021/11/28 03:07:43;;;;;;;22.50;21.10;;;3.40;85.70;;;;;;5069020;28;20331;-70
2021/11/28 03:10:30;;;;;;;22.60;21.30;;;3.40;85.70;;;;;;5068071;28;20977;-69
2021/11/28 03:12:57;;;;;;;22.13;20.90;;;3.30;86.10;;;;;;5069616;28;20302;-69
2021/11/28 03:15:25;;;;;;;22.98;21.40;;;3.30;86.00;;;;;;5067006;28;20206;-69
2021/11/28 03:17:52;;;;;;;21.70;20.30;;;3.30;85.80;;;;;;5068475;28;20283;-70
2021/11/28 03:20:19;;;;;;;23.15;21.50;;;3.30;85.50;;;;;;5067187;28;20278;-69
2021/11/28 03:22:47;;;;;;;21.65;20.48;;;3.40;85.10;;;;;;5069627;28;20608;-70
2021/11/28 03:25:15;;;;;;;23.08;21.65;;;3.40;84.40;;;;;;5067650;28;20204;-70
2021/11/28 03:27:44;;;;;;;22.40;21.10;;;3.40;85.40;;;;;;5069373;28;20202;-69
2021/11/28 03:30:12;;;;;;;23.65;22.08;;;3.40;86.30;;;;;;5067278;28;20684;-70
2021/11/28 03:32:39;;;;;;;22.17;20.88;;;3.30;86.60;;;;;;5068289;28;20307;-70
2021/11/28 03:35:08;;;;;;;23.33;21.83;;;3.30;86.60;;;;;;5066970;28;20275;-70
2021/11/28 03:37:36;;;;;;;22.30;21.00;;;3.30;86.50;;;;;;5068174;28;20635;-69
2021/11/28 03:40:05;;;;;;;22.63;21.33;;;3.40;86.40;;;;;;5069680;28;20271;-69
2021/11/28 03:42:32;;;;;;;22.02;20.60;;;3.30;86.80;;;;;;5065039;28;20299;-69
2021/11/28 03:45:01;;;;;;;24.10;22.40;;;3.40;87.00;;;;;;5065253;28;20223;-70
2021/11/28 03:47:28;;;;;;;23.40;22.00;;;3.30;87.20;;;;;;5072846;28;20231;-70
2021/11/28 03:49:55;;;;;;;22.17;20.80;;;3.10;87.90;;;;;;5069149;28;20220;-70
2021/11/28 03:52:22;;;;;;;22.55;21.08;;;3.10;88.00;;;;;;5062507;28;20283;-70
2021/11/28 03:54:49;;;;;;;22.55;20.92;;;3.10;88.30;;;;;;5071801;28;20266;-70
2021/11/28 03:57:16;;;;;;;22.23;20.83;;;3.00;88.50;;;;;;5073107;28;20209;-70
2021/11/28 03:59:43;;;;;;;21.48;20.13;;;3.00;88.70;;;;;;5070716;28;20291;-69
2021/11/28 04:02:11;;;;;;;23.17;21.70;;;3.00;88.70;;;;;;5073369;28;20192;-69
2021/11/28 04:04:38;;;;;;;21.58;20.30;;;3.00;88.50;;;;;;5070005;28;20291;-70
2021/11/28 04:07:05;;;;;;;22.75;21.30;;;3.00;88.80;;;;;;5071286;28;20625;-70
2021/11/28 04:09:32;;;;;;;20.63;19.42;;;3.00;88.50;;;;;;5071924;28;20227;-70
2021/11/28 04:11:59;;;;;;;21.77;20.27;;;3.00;88.30;;;;;;5070905;28;20251;-70
2021/11/28 04:14:26;;;;;;;21.20;19.90;;;3.10;88.20;;;;;;5071996;28;20247;-70
2021/11/28 04:16:53;;;;;;;22.13;20.58;;;3.10;88.10;;;;;;5070242;28;20192;-70
2021/11/28 04:19:21;;;;;;;20.33;19.23;;;3.10;88.10;;;;;;5072976;28;20235;-70
2021/11/28 04:21:48;;;;;;;20.90;19.80;;;3.20;88.20;;;;;;5070844;28;20227;-70
2021/11/28 04:24:15;;;;;;;21.75;20.25;;;3.20;87.90;;;;;;5072260;28;20315;-70
2021/11/28 04:26:43;;;;;;;21.92;20.58;;;3.00;88.10;;;;;;5070162;28;20196;-70
2021/11/28 04:29:10;;;;;;;21.27;20.02;;;3.00;88.70;;;;;;5072096;28;20290;-70
2021/11/28 04:31:37;;;;;;;21.75;20.27;;;2.90;89.00;;;;;;5070997;28;20313;-69
2021/11/28 04:34:04;;;;;;;22.23;20.58;;;3.00;89.00;;;;;;5072020;28;20252;-69
2021/11/28 04:36:32;;;;;;;21.90;20.60;;;3.00;88.90;;;;;;5068354;28;20231;-69
2021/11/28 04:38:59;;;;;;;20.45;19.15;;;3.00;88.70;;;;;;5071901;28;20200;-69
2021/11/28 04:41:26;;;;;;;23.10;21.30;;;3.00;88.10;;;;;;5070238;28;20223;-70
2021/11/28 04:43:53;;;;;;;21.60;20.40;;;3.00;87.90;;;;;;5068095;28;20300;-69
2021/11/28 04:46:20;;;;;;;20.92;19.60;;;3.00;88.30;;;;;;5069389;28;20585;-69
2021/11/28 04:48:47;;;;;;;21.13;19.73;;;3.00;88.10;;;;;;5072392;28;20196;-69
2021/11/28 04:51:14;;;;;;;22.00;20.58;;;3.10;87.90;;;;;;5069522;28;20584;-70
2021/11/28 04:53:43;;;;;;;21.27;20.08;;;3.10;88.00;;;;;;5059022;28;20261;-69
2021/11/28 04:56:10;;;;;;;21.88;20.27;;;3.10;88.10;;;;;;5070608;28;20227;-69
2021/11/28 04:58:37;;;;;;;22.52;21.00;;;3.10;87.80;;;;;;5071661;28;20282;-69
2021/11/28 05:01:04;;;;;;;21.88;20.55;;;3.00;88.00;;;;;;5070055;28;20278;-70
2021/11/28 05:03:31;;;;;;;21.65;20.45;;;3.10;88.20;;;;;;5071273;28;20266;-69
2021/11/28 05:05:58;;;;;;;22.13;20.90;;;3.20;88.20;;;;;;5069514;28;20254;-69
2021/11/28 05:08:25;;;;;;;21.40;20.20;;;3.10;88.50;;;;;;5071532;28;20672;-70
2021/11/28 05:10:53;;;;;;;21.10;19.77;;;3.10;88.70;;;;;;5062107;28;20215;-69
2021/11/28 05:13:20;;;;;;;21.48;20.35;;;3.20;88.70;;;;;;5071729;28;20258;-69
2021/11/28 05:15:47;;;;;;;20.85;19.60;;;3.20;88.80;;;;;;5069127;28;20646;-69
2021/11/28 05:18:14;;;;;;;20.80;19.70;;;3.30;88.60;;;;;;5072072;28;20794;-69
2021/11/28 05:20:41;;;;;;;20.15;18.95;;;3.30;88.20;;;;;;5069760;28;20278;-70
2021/11/28 05:23:08;;;;;;;20.58;19.38;;;3.20;88.20;;;;;;5071121;28;20219;-69
2021/11/28 05:25:36;;;;;;;20.85;19.65;;;3.20;88.40;;;;;;5069297;28;20235;-70
2021/11/28 05:28:06;;;;;;;21.10;19.90;;;3.20;88.50;;;;;;5071669;28;20721;-70
2021/11/28 05:30:33;;;;;;;20.73;19.52;;;3.20;88.30;;;;;;5069838;28;20228;-70
2021/11/28 05:33:00;;;;;;;22.05;20.85;;;3.20;88.10;;;;;;5071194;28;20273;-69
2021/11/28 05:35:29;;;;;;;21.83;20.58;;;3.20;87.70;;;;;;5067949;28;20224;-70
2021/11/28 05:37:57;;;;;;;20.65;19.30;;;3.30;87.40;;;;;;5053881;28;20192;-69
2021/11/28 05:40:24;;;;;;;20.92;19.70;;;3.30;87.30;;;;;;5068236;28;20195;-69
2021/11/28 05:42:53;;;;;;;22.13;20.63;;;3.30;87.00;;;;;;5070121;28;20302;-70
2021/11/28 05:45:23;;;;;;;21.60;20.40;;;3.20;87.10;;;;;;5068270;28;20911;-70
2021/11/28 05:47:51;;;;;;;21.67;20.48;;;3.20;87.00;;;;;;5070914;28;20600;-70
2021/11/28 05:50:20;;;;;;;21.58;20.17;;;3.20;87.30;;;;;;5069216;28;20250;-70
2021/11/28 05:52:47;;;;;;;21.52;20.23;;;3.20;87.20;;;;;;5071176;28;20219;-69
2021/11/28 05:55:15;;;;;;;20.90;19.70;;;3.30;87.00;;;;;;5060469;28;20223;-69
2021/11/28 05:57:43;;;;;;;21.58;20.23;;;3.30;87.10;;;;;;5069299;28;20626;-70
2021/11/28 06:00:14;;;;;;;21.83;20.33;;;3.20;87.40;;;;;;5068246;28;20223;-70
2021/11/28 06:02:42;;;;;;;21.92;20.63;;;3.10;88.00;;;;;;5068216;28;20300;-70
2021/11/28 06:05:10;;;;;;;21.67;20.48;;;3.10;88.50;;;;;;5068292;28;20290;-69
2021/11/28 06:07:38;;;;;;;21.13;19.88;;;3.10;88.40;;;;;;5070530;28;20261;-70
2021/11/28 06:10:06;;;;;;;21.70;20.05;;;3.10;88.30;;;;;;5069074;28;20881;-70
2021/11/28 06:12:33;;;;;;;20.45;19.35;;;3.10;88.50;;;;;;5070374;28;20304;-70
2021/11/28 06:15:00;;;;;;;20.20;19.00;;;3.10;88.40;;;;;;5068011;28;20200;-70
2021/11/28 06:17:28;;;;;;;20.67;19.35;;;3.10;88.50;;;;;;5070301;28;20200;-70
2021/11/28 06:19:56;;;;;;;19.90;18.80;;;3.20;88.40;;;;;;5068826;28;20688;-70
2021/11/28 06:22:23;;;;;;;22.35;21.05;;;3.20;88.10;;;;;;5069383;28;20275;-70
2021/11/28 06:24:50;;;;;;;22.77;21.38;;;3.30;87.60;;;;;;5068766;28;20322;-69
2021/11/28 06:27:19;;;;;;;20.83;19.63;;;3.20;87.90;;;;;;5070668;28;20606;-70
2021/11/28 06:29:47;;;;;;;20.83;19.40;;;3.20;88.10;;;;;;5068299;28;20593;-70
2021/11/28 06:32:14;;;;;;;21.65;20.45;;;3.20;87.90;;;;;;5068860;28;20219;-68
2021/11/28 06:34:41;;;;;;;21.33;20.10;;;3.10;88.20;;;;;;5067929;28;20282;-75
2021/11/28 06:37:11;;;;;;;23.60;22.13;;;3.10;88.40;;;;;;5069945;28;20222;-71
2021/11/28 06:39:38;;;;;;;21.87;20.57;;;3.20;88.10;;;;;;5067544;28;20537;-69
2021/11/28 06:42:05;;;;;;;21.45;20.25;;;3.40;88.30;;;;;;5069181;28;21024;-70
2021/11/28 06:44:33;;;;;;;21.25;20.00;;;3.40;87.60;;;;;;5066045;28;20200;-70
2021/11/28 06:47:00;;;;;;;22.00;20.45;;;3.40;87.30;;;;;;5069931;28;20223;-70
2021/11/28 06:49:27;;;;;;;21.38;20.08;;;3.30;87.50;;;;;;5070351;28;20235;-70
2021/11/28 06:51:55;;;;;;;22.42;21.13;;;3.20;87.90;;;;;;5068286;28;20657;-70
2021/11/28 06:54:24;;;;;;;21.88;20.67;;;3.20;88.20;;;;;;5069754;28;20626;-70
2021/11/28 06:56:52;;;;;;;21.52;20.33;;;3.10;88.40;;;;;;5067877;28;20720;-69
2021/11/28 06:59:19;;;;;;;21.48;19.83;;;3.20;88.30;;;;;;5070072;28;20286;-69
2021/11/28 07:01:47;;;;;;;21.98;20.67;;;3.20;88.40;;;;;;5066024;28;20222;-69
2021/11/28 07:04:14;;;;;;;23.02;21.65;;;3.20;88.20;;;;;;5068601;28;20314;-69
2021/11/28 07:06:41;;;;;;;21.45;20.25;;;3.20;88.10;;;;;;5067980;28;20278;-70
2021/11/28 07:09:08;;;;;;;22.13;20.63;;;3.20;87.50;;;;;;5069613;28;20204;-70
2021/11/28 07:11:36;;;;;;;22.30;20.83;;;3.20;87.50;;;;;;5067085;28;20215;-70
2021/11/28 07:14:03;;;;;;;23.85;22.45;;;3.10;87.70;;;;;;5069440;28;20278;-69
2021/11/28 07:16:30;;;;;;;21.85;20.55;;;3.20;87.80;;;;;;5067459;28;20230;-69
2021/11/28 07:18:57;;;;;;;23.33;21.92;;;3.20;87.70;;;;;;5070044;28;20792;-69
2021/11/28 07:21:24;;;;;;;21.73;20.60;;;3.20;87.90;;;;;;5067496;28;20216;-70
2021/11/28 07:23:51;;;;;;;22.33;21.10;;;3.20;88.20;;;;;;5069409;28;20727;-70
2021/11/28 07:26:19;;;;;;;22.88;21.08;;;3.30;87.80;;;;;;5067476;28;20972;-69
2021/11/28 07:28:48;;;;;;;23.88;22.55;;;3.30;87.60;;;;;;5070200;28;20540;-70
2021/11/28 07:31:16;;;;;;;22.58;21.15;;;3.20;88.10;;;;;;5066917;28;20247;-70
2021/11/28 07:33:43;;;;;;;22.38;21.08;;;3.20;88.60;;;;;;5064047;28;20230;-70
2021/11/28 07:36:10;;;;;;;23.05;21.58;;;3.20;88.70;;;;;;5067613;28;20282;-71
2021/11/28 07:38:38;;;;;;;24.70;23.00;;;3.30;88.80;;;;;;5059947;28;20292;-70
2021/11/28 07:41:05;;;;;;;24.13;22.58;;;3.30;88.70;;;;;;5067984;28;20204;-70
2021/11/28 07:43:32;;;;;;;21.65;20.42;;;3.40;88.60;;;;;;5067306;28;20250;-70
2021/11/28 07:46:02;;;;;;;22.85;21.55;;;3.40;88.60;;;;;;5061228;28;20207;-70
2021/11/28 07:48:29;;;;;;;22.52;21.02;;;3.40;88.50;;;;;;5069165;28;20192;-70
2021/11/28 07:50:58;;;;;;;22.08;20.65;;;3.40;88.50;;;;;;5067032;28;20192;-71
2021/11/28 07:53:25;;;;;;;22.90;21.40;;;3.40;88.40;;;;;;5067469;28;20220;-70
2021/11/28 07:55:52;;;;;;;22.23;20.90;;;3.60;88.20;;;;;;5067353;28;20228;-71
2021/11/28 07:58:19;;;;;;;24.42;22.92;;;3.60;87.80;;;;;;5069140;28;20732;-73
2021/11/28 08:00:46;;;;;;;22.27;20.98;;;3.70;87.70;;;;;;5065392;28;20288;-74
2021/11/28 08:03:15;;;;;;;24.00;22.60;;;3.60;87.50;;;;;;5068762;28;20323;-73
2021/11/28 08:05:42;;;;;;;24.08;22.67;;;3.60;87.80;;;;;;5067219;28;20196;-73
2021/11/28 08:08:10;;;;;;;23.92;22.40;;;3.70;87.60;;;;;;5068780;28;20717;-73
2021/11/28 08:10:38;;;;;;;23.85;22.20;;;3.80;87.40;;;;;;5066787;28;20196;-72
2021/11/28 08:13:05;;;;;;;21.50;20.30;;;3.80;87.10;;;;;;5068420;28;20243;-72
2021/11/28 08:15:32;;;;;;;25.48;23.88;;;3.90;88.70;;;;;;5067084;28;20295;-73
2021/11/28 08:17:59;;;;;;;24.05;22.65;;;3.90;88.60;;;;;;5069376;28;20287;-73
2021/11/28 08:20:27;;;;;;;22.20;20.80;;;3.90;90.70;;;;;;5066362;28;20227;-73
2021/11/28 08:22:55;;;;;;;23.35;22.05;;;4.10;89.90;;;;;;5069171;28;20292;-72
2021/11/28 08:25:23;;;;;;;40.20;21.90;;;4.00;90.00;;;;;;5067498;28;20203;-72
2021/11/28 08:27:50;;;;;;;22.73;21.38;;;4.10;88.60;;;;;;5072737;28;20224;-73
2021/11/28 08:30:17;;;;;;;26.45;24.95;;;4.20;88.40;;;;;;5069112;28;20199;-70
2021/11/28 08:32:48;;;;;;;22.38;21.08;;;4.30;86.10;;;;;;5072509;28;20220;-69
2021/11/28 08:35:15;;;;;;;21.88;20.67;;;4.30;84.80;;;;;;5064705;28;20196;-71
2021/11/28 08:37:43;;;;;;;21.73;20.58;;;4.40;84.10;;;;;;5068789;28;20637;-70
2021/11/28 08:40:13;;;;;;;22.30;21.05;;;4.30;84.30;;;;;;5068375;28;20700;-70
2021/11/28 08:42:40;;;;;;;23.63;22.15;;;4.20;86.40;;;;;;5076942;28;20774;-71
2021/11/28 08:45:11;;;;;;;25.35;23.55;;;4.30;85.10;;;;;;5070451;28;20196;-72
2021/11/28 08:47:39;;;;;;;23.42;21.75;;;4.30;85.30;;;;;;5069248;28;20311;-69
2021/11/28 08:50:09;;;;;;;42.88;27.02;;;4.30;89.40;;;;;;5070426;28;20192;-69
2021/11/28 08:52:37;;;;;;;21.15;19.67;;;4.30;87.60;;;;;;5068364;28;20306;-71
2021/11/28 08:55:07;;;;;;;22.65;21.35;;;4.30;91.30;;;;;;5074895;28;20250;-70
2021/11/28 08:57:35;;;;;;;41.40;25.55;;;4.40;89.20;;;;;;5067681;28;20764;-70
2021/11/28 09:00:03;;;;;;;20.38;19.17;;;4.50;89.30;;;;;;5070194;28;20195;-70
2021/11/28 09:02:30;;;;;;;21.73;19.90;;;4.60;88.40;;;;;;5070704;28;20298;-70
2021/11/28 09:04:57;;;;;;;37.63;22.20;;;4.70;88.00;;;;;;5070165;28;20231;-70
2021/11/28 09:07:24;;;;;;;22.17;20.92;;;4.70;87.50;;;;;;5071928;28;20242;-70
2021/11/28 09:09:51;;;;;;;22.08;20.88;;;4.70;87.40;;;;;;5068785;28;20208;-70
2021/11/28 09:12:19;;;;;;;22.20;21.00;;;4.80;86.50;;;;;;5068548;28;20656;-70
2021/11/28 09:14:46;;;;;;;25.13;22.92;;;5.00;84.90;;;;;;5067718;28;20227;-70
2021/11/28 09:17:13;;;;;;;21.73;20.38;;;5.00;82.40;;;;;;5068251;28;20278;-70
2021/11/28 09:19:47;;;;;;;21.35;20.15;;;4.90;84.40;;;;;;5069699;28;20203;-70
2021/11/28 09:22:22;;;;;;;22.85;21.55;;;4.90;82.70;;;;;;5066523;28;20192;-71
2021/11/28 09:24:48;;;;;;;23.48;21.98;;;4.90;84.20;;;;;;5066267;28;20199;-69
2021/11/28 09:27:20;;;;;;;21.70;20.50;;;4.80;82.50;;;;;;5071347;28;20210;-70
2021/11/28 09:29:48;;;;;;;21.45;20.20;;;4.80;82.60;;;;;;5075584;28;20474;-69
2021/11/28 09:32:17;;;;;;;22.33;20.80;;;4.90;86.20;;;;;;5067338;28;20707;-70
2021/11/28 09:34:44;;;;;;;21.70;20.40;;;4.90;87.30;;;;;;5068730;28;20822;-70
2021/11/28 09:37:11;;;;;;;21.92;20.63;;;5.00;87.20;;;;;;5066711;28;20235;-69
2021/11/28 09:39:42;;;;;;;24.63;23.27;;;5.00;82.60;;;;;;5067834;28;20604;-70
2021/11/28 09:42:11;;;;;;;21.40;20.10;;;5.00;82.50;;;;;;5063385;28;20301;-70
2021/11/28 09:44:41;;;;;;;24.27;22.77;;;5.00;81.10;;;;;;5068807;28;20290;-70
2021/11/28 09:47:12;;;;;;;23.25;21.85;;;5.00;81.00;;;;;;5069976;28;20235;-70
2021/11/28 09:49:41;;;;;;;24.75;22.95;;;5.10;80.20;;;;;;5069244;28;20301;-70
2021/11/28 09:52:15;;;;;;;23.42;22.13;;;5.00;80.40;;;;;;5069962;28;20259;-70
2021/11/28 09:54:44;;;;;;;23.02;21.73;;;4.90;80.50;;;;;;5062342;28;20220;-70
2021/11/28 09:57:13;;;;;;;23.17;21.38;;;4.80;81.00;;;;;;5080910;28;20402;-70
2021/11/28 09:59:41;;;;;;;23.90;22.38;;;4.80;82.50;;;;;;5066896;28;20271;-70
2021/11/28 10:02:14;;;;;;;23.13;21.75;;;5.00;82.40;;;;;;5068436;28;20283;-70
2021/11/28 10:04:42;;;;;;;23.08;21.75;;;5.10;81.20;;;;;;5068111;28;20243;-70
2021/11/28 10:07:12;;;;;;;22.45;21.10;;;5.10;81.70;;;;;;5070723;28;20230;-70
2021/11/28 10:09:39;;;;;;;22.38;21.02;;;5.10;81.10;;;;;;5066563;28;20224;-70
2021/11/28 10:12:23;;;;;;;21.80;20.60;;;5.00;81.00;;;;;;5064529;28;20324;-70
2021/11/28 10:14:52;;;;;;;23.13;21.67;;;5.10;80.80;;;;;;5061362;28;20277;-70
2021/11/28 10:17:24;;;;;;;23.13;21.70;;;5.10;80.30;;;;;;5070513;28;20301;-69
2021/11/28 10:19:51;;;;;;;22.48;21.17;;;5.00;80.30;;;;;;5073302;28;20228;-70
2021/11/28 10:22:18;;;;;;;22.38;21.05;;;5.10;80.40;;;;;;5069174;28;20613;-70
2021/11/28 10:25:03;;;;;;;22.33;21.05;;;5.10;79.80;;;;;;5063454;28;20286;-70
2021/11/28 10:27:40;;;;;;;23.15;21.73;;;5.10;80.40;;;;;;5066810;28;20643;-69
2021/11/28 10:30:10;;;;;;;22.42;20.90;;;5.20;79.60;;;;;;5067294;28;20223;-69
2021/11/28 10:32:43;;;;;;;21.98;20.75;;;5.20;80.20;;;;;;5067700;28;20285;-69
2021/11/28 10:35:13;;;;;;;23.05;21.90;;;5.30;80.30;;;;;;5063552;28;20200;-69
2021/11/28 10:37:42;;;;;;;21.90;20.70;;;5.30;79.30;;;;;;5066994;28;20719;-70
2021/11/28 10:40:11;;;;;;;23.50;22.20;;;5.20;79.90;;;;;;5061026;28;20196;-70
2021/11/28 10:42:39;;;;;;;23.60;22.20;;;5.10;80.30;;;;;;5061840;28;20207;-70
2021/11/28 10:45:10;;;;;;;24.50;23.10;;;5.10;80.90;;;;;;5056745;28;20207;-70
2021/11/28 10:47:40;;;;;;;20.48;19.33;;;5.20;82.70;;;;;;5059957;28;20669;-70
2021/11/28 10:50:16;;;;;;;22.00;20.70;;;5.40;80.90;;;;;;5054358;28;20226;-70
2021/11/28 10:52:44;;;;;;;22.73;21.30;;;5.50;80.20;;;;;;5060987;28;20269;-69
2021/11/28 10:55:14;;;;;;;34.50;23.15;;;5.50;78.70;;;;;;5062949;28;20701;-69
2021/11/28 10:57:42;;;;;;;41.83;22.20;;;5.50;83.30;;;;;;5067438;28;20624;-69
2021/11/28 11:00:11;;;;;;;20.48;19.42;;;5.60;84.20;;;;;;5064988;28;20657;-69
2021/11/28 11:02:40;;;;;;;21.92;20.67;;;5.70;85.50;;;;;;5068797;28;20528;-69
2021/11/28 11:05:10;;;;;;;22.38;21.08;;;5.80;80.60;;;;;;5064983;28;20211;-70
2021/11/28 11:07:48;;;;;;;20.50;19.40;;;5.80;80.20;;;;;;5069123;28;20204;-69
2021/11/28 11:10:26;;;;;;;22.60;21.40;;;5.80;77.70;;;;;;5064779;28;20349;-70
2021/11/28 11:12:53;;;;;;;22.05;20.70;;;5.70;76.20;;;;;;5065850;28;20760;-69
2021/11/28 11:15:35;;;;;;;22.45;21.27;;;5.70;74.90;;;;;;5063581;28;20813;-69
2021/11/28 11:18:04;;;;;;;22.45;21.15;;;5.50;75.50;;;;;;5065193;28;20295;-70
2021/11/28 11:20:38;;;;;;;20.88;19.77;;;5.40;76.00;;;;;;5060689;28;20608;-70
2021/11/28 11:23:34;;;;;;;22.02;20.60;;;5.30;76.60;;;;;;5065415;28;20290;-69
2021/11/28 11:26:20;;;;;;;22.95;21.23;;;5.40;79.60;;;;;;5063738;28;20323;-70
2021/11/28 11:29:07;;;;;;;22.48;21.38;;;5.40;76.70;;;;;;5056360;28;20657;-69
2021/11/28 11:31:35;;;;;;;23.05;21.65;;;5.40;76.30;;;;;;5063488;28;20210;-70
2021/11/28 11:34:02;;;;;;;19.52;18.27;;;5.40;76.00;;;;;;5055465;28;20222;-69
2021/11/28 11:36:57;;;;;;;21.83;19.52;;;5.40;85.00;;;;;;5062789;28;20390;-69
2021/11/28 11:39:28;;;;;;;277.50;40.28;;;5.40;85.10;;;;;;5058768;28;20253;-70
2021/11/28 11:41:55;;;;;;;21.27;20.00;;;5.60;85.90;;;;;;5064305;28;20277;-69
2021/11/28 11:44:25;;;;;;;20.90;19.90;;;5.80;79.00;;;;;;5073617;28;20219;-69
2021/11/28 11:46:53;;;;;;;22.23;21.13;;;5.80;75.50;;;;;;5067025;28;20199;-70
2021/11/28 11:49:20;;;;;;;22.90;21.60;;;6.00;73.50;;;;;;5065062;28;20295;-70
2021/11/28 11:51:48;;;;;;;19.98;18.98;;;6.00;72.40;;;;;;5064334;28;20227;-69
2021/11/28 11:54:24;;;;;;;21.40;20.30;;;6.20;71.60;;;;;;5062487;28;20647;-70
2021/11/28 11:57:00;;;;;;;22.00;20.70;;;6.20;75.60;;;;;;5063849;28;20227;-70
2021/11/28 11:59:35;;;;;;;22.40;21.20;;;6.10;72.70;;;;;;5075956;28;20275;-69
2021/11/28 12:02:04;;;;;;;22.15;20.85;;;6.00;73.10;;;;;;5070322;28;20196;-70
2021/11/28 12:04:42;;;;;;;24.42;23.13;;;6.10;72.50;;;;;;5070844;28;20247;-70
2021/11/28 12:07:09;;;;;;;20.90;19.80;;;6.10;72.80;;;;;;5065958;28;20283;-69
2021/11/28 12:09:37;;;;;;;21.80;20.60;;;6.00;74.80;;;;;;5072213;28;20235;-70
2021/11/28 12:12:07;;;;;;;20.95;19.75;;;6.00;75.60;;;;;;5072620;28;20275;-70
2021/11/28 12:14:35;;;;;;;22.50;21.40;;;6.10;75.80;;;;;;5070565;28;20295;-70
2021/11/28 12:17:36;;;;;;;22.55;21.20;;;6.30;72.60;;;;;;5070926;28;20628;-70
2021/11/28 12:20:03;;;;;;;21.60;20.50;;;6.30;72.10;;;;;;5065838;28;20200;-70
2021/11/28 12:22:51;;;;;;;22.33;21.13;;;6.10;79.60;;;;;;5071224;28;20235;-70
2021/11/28 12:25:37;;;;;;;23.20;21.83;;;6.10;73.30;;;;;;5063923;28;20213;-70
2021/11/28 12:28:27;;;;;;;21.48;19.90;;;5.90;73.30;;;;;;5070725;28;20203;-69
2021/11/28 12:30:55;;;;;;;24.90;23.10;;;5.90;73.50;;;;;;5064036;28;20731;-69
2021/11/28 12:33:55;;;;;;;24.17;22.67;;;6.00;74.30;;;;;;5066102;28;20254;-70
2021/11/28 12:36:43;;;;;;;24.83;23.42;;;6.20;74.40;;;;;;5068061;28;20255;-72
2021/11/28 12:39:32;;;;;;;24.83;23.35;;;6.10;75.40;;;;;;5071717;28;20192;-73
2021/11/28 12:42:02;;;;;;;24.30;22.77;;;6.00;75.80;;;;;;5070813;28;20295;-72
2021/11/28 12:44:31;;;;;;;23.23;21.92;;;5.90;77.80;;;;;;5062573;28;20244;-71
2021/11/28 12:47:00;;;;;;;24.42;22.92;;;6.00;77.10;;;;;;5069476;28;20208;-71